createdAt,value
2023-04-21T00:04:40.378Z,9.71
2023-04-21T00:09:43.496Z,9.68
2023-04-21T00:14:46.564Z,9.67
2023-04-21T00:19:49.549Z,9.68
2023-04-21T00:24:52.484Z,9.65
2023-04-21T00:29:55.402Z,9.68
2023-04-21T00:34:58.355Z,9.66
2023-04-21T00:40:01.345Z,9.54
2023-04-21T00:45:06.230Z,9.44
2023-04-21T00:50:11.317Z,9.40
2023-04-21T00:55:14.970Z,9.45
2023-04-21T01:00:19.155Z,9.45
2023-04-21T01:05:24.991Z,9.24
2023-04-21T01:10:28.026Z,9.35
2023-04-21T01:15:31.574Z,9.34
2023-04-21T01:20:34.962Z,9.32
2023-04-21T01:25:37.899Z,9.28
2023-04-21T01:30:40.946Z,9.27
2023-04-21T01:35:44.009Z,9.41
2023-04-21T01:40:49.756Z,9.31
2023-04-21T01:45:53.492Z,9.29
2023-04-21T01:50:56.603Z,9.47
2023-04-21T01:55:59.695Z,9.16
2023-04-21T02:01:02.806Z,9.55
2023-04-21T02:06:06.367Z,9.51
2023-04-21T02:11:09.424Z,9.60
2023-04-21T02:16:13.981Z,9.50
2023-04-21T02:21:17.319Z,9.48
2023-04-21T02:26:21.431Z,9.51
2023-04-21T02:31:24.457Z,9.47
2023-04-21T02:36:27.654Z,9.50
2023-04-21T02:41:33.851Z,9.67
2023-04-21T02:46:41.190Z,9.54
2023-04-21T02:51:44.144Z,9.67
2023-04-21T02:56:47.189Z,9.67
2023-04-21T03:01:50.172Z,9.73
2023-04-21T03:06:54.151Z,9.68
2023-04-21T03:11:57.128Z,9.82
2023-04-21T03:17:00.184Z,9.77
2023-04-21T03:22:03.195Z,9.96
2023-04-21T03:27:06.700Z,9.89
2023-04-21T03:32:09.709Z,10.06
2023-04-21T03:37:13.052Z,9.99
2023-04-21T03:42:16.117Z,9.89
2023-04-21T03:47:19.202Z,9.93
2023-04-21T03:52:22.413Z,9.93
2023-04-21T03:57:25.423Z,10.07
2023-04-21T04:02:29.779Z,10.00
2023-04-21T04:07:33.589Z,10.09
2023-04-21T04:12:36.531Z,10.17
2023-04-21T04:17:39.513Z,10.19
2023-04-21T04:22:42.434Z,10.30
2023-04-21T04:27:45.716Z,10.31
2023-04-21T04:32:48.819Z,10.39
2023-04-21T04:37:52.443Z,10.53
2023-04-21T04:42:55.412Z,10.62
2023-04-21T04:47:58.379Z,10.74
2023-04-21T04:53:01.464Z,10.78
2023-04-21T04:58:04.490Z,10.56
2023-04-21T05:03:07.592Z,10.68
2023-04-21T05:08:10.664Z,10.65
2023-04-21T05:13:13.631Z,10.46
2023-04-21T05:18:16.571Z,10.47
2023-04-21T05:23:20.500Z,10.42
2023-04-21T05:28:23.761Z,10.43
2023-04-21T05:33:27.170Z,10.73
2023-04-21T05:38:30.122Z,10.87
2023-04-21T05:43:36.057Z,11.11
2023-04-21T05:48:39.235Z,11.02
2023-04-21T05:53:45.482Z,11.06
2023-04-21T05:58:48.534Z,10.92
2023-04-21T06:03:51.682Z,10.95
2023-04-21T06:08:54.910Z,10.70
2023-04-21T06:14:00.055Z,10.62
2023-04-21T06:19:03.087Z,10.29
2023-04-21T06:24:06.352Z,10.45
2023-04-21T06:29:09.395Z,10.38
2023-04-21T06:34:12.429Z,10.44
2023-04-21T06:39:15.686Z,10.54
2023-04-21T06:44:19.590Z,10.39
2023-04-21T06:49:22.827Z,10.31
2023-04-21T06:54:25.860Z,10.64
2023-04-21T06:59:29.130Z,10.95
2023-04-21T07:04:32.616Z,10.94
2023-04-21T07:09:35.677Z,11.13
2023-04-21T07:14:38.758Z,11.27
2023-04-21T07:19:41.789Z,11.34
2023-04-21T07:24:44.739Z,11.54
2023-04-21T07:29:47.699Z,11.53
2023-04-21T07:34:50.782Z,11.60
2023-04-21T07:39:53.924Z,11.76
2023-04-21T07:44:57.917Z,11.67
2023-04-21T07:50:01.600Z,11.58
2023-04-21T07:55:07.736Z,11.54
2023-04-21T08:00:29.315Z,11.63
2023-04-21T08:05:36.607Z,11.59
2023-04-21T08:10:42.033Z,11.48
2023-04-21T08:15:45.149Z,11.04
2023-04-21T08:20:48.358Z,10.98
2023-04-21T08:25:51.555Z,11.08
2023-04-21T08:30:54.556Z,10.99
2023-04-21T08:36:05.470Z,11.11
2023-04-21T08:41:11.124Z,11.26
2023-04-21T08:46:15.198Z,11.38
2023-04-21T08:51:28.651Z,11.74
2023-04-21T08:56:31.961Z,12.23
2023-04-21T09:02:08.650Z,12.73
2023-04-21T09:07:13.239Z,12.93
2023-04-21T09:12:16.362Z,13.01
2023-04-21T09:17:22.865Z,13.10
2023-04-21T09:22:29.549Z,12.92
2023-04-21T09:27:32.431Z,12.85
2023-04-21T09:32:39.898Z,12.65
2023-04-21T09:37:45.852Z,12.75
2023-04-21T09:42:50.751Z,12.68
2023-04-21T09:47:57.516Z,12.69
2023-04-21T09:53:04.666Z,12.58
2023-04-21T09:58:10.144Z,12.59
2023-04-21T10:03:14.868Z,12.64
2023-04-21T10:08:19.178Z,12.78
2023-04-21T10:13:22.795Z,12.84
2023-04-21T10:18:26.003Z,12.88
2023-04-21T10:23:31.057Z,13.10
2023-04-21T10:28:48.545Z,12.95
2023-04-21T10:34:06.675Z,13.04
2023-04-21T10:39:13.242Z,12.80
2023-04-21T10:44:17.095Z,12.72
2023-04-21T10:49:24.024Z,12.92
2023-04-21T10:54:28.621Z,12.95
2023-04-21T10:59:31.606Z,13.15
2023-04-21T11:04:35.424Z,13.39
2023-04-21T11:09:40.109Z,13.82
2023-04-21T11:14:45.347Z,14.01
2023-04-21T11:19:56.374Z,14.29
2023-04-21T11:25:00.112Z,14.45
2023-04-21T11:30:04.260Z,14.96
2023-04-21T11:35:09.525Z,15.15
2023-04-21T11:40:12.739Z,15.35
2023-04-21T11:45:22.111Z,15.54
2023-04-21T11:50:35.966Z,15.59
2023-04-21T11:55:43.163Z,15.85
2023-04-21T12:00:46.835Z,15.66
2023-04-21T12:05:57.056Z,15.78
2023-04-21T12:11:00.653Z,15.76
2023-04-21T12:16:04.550Z,15.92
2023-04-21T12:21:07.701Z,15.76
2023-04-21T12:26:11.856Z,15.64
2023-04-21T12:31:15.111Z,15.87
2023-04-21T12:36:18.596Z,15.66
2023-04-21T12:41:21.859Z,16.10
2023-04-21T12:46:25.115Z,16.08
2023-04-21T12:51:28.213Z,15.99
2023-04-21T12:56:31.765Z,15.66
2023-04-21T13:01:34.743Z,15.57
2023-04-21T13:06:39.586Z,15.40
2023-04-21T13:11:42.685Z,15.30
2023-04-21T13:16:45.798Z,14.97
2023-04-21T13:21:48.888Z,15.20
2023-04-21T13:26:51.915Z,15.25
2023-04-21T13:31:54.929Z,15.20
2023-04-21T13:36:58.155Z,15.20
2023-04-21T13:42:01.798Z,14.97
2023-04-21T13:47:07.420Z,15.08
2023-04-21T13:52:11.816Z,14.96
2023-04-21T13:57:14.964Z,14.93
2023-04-21T14:02:18.600Z,14.90
2023-04-21T14:07:23.517Z,14.59
2023-04-21T14:12:28.118Z,14.67
2023-04-21T14:17:31.161Z,14.63
2023-04-21T14:22:34.252Z,14.55
2023-04-21T14:27:37.346Z,14.56
2023-04-21T14:32:45.863Z,14.47
2023-04-21T14:37:48.987Z,14.42
2023-04-21T14:42:52.054Z,14.27
2023-04-21T14:47:55.120Z,14.09
2023-04-21T14:52:58.125Z,14.11
2023-04-21T14:58:01.188Z,14.01
2023-04-21T15:03:04.714Z,13.94
2023-04-21T15:08:07.731Z,13.85
2023-04-21T15:13:12.377Z,13.66
2023-04-21T15:18:15.440Z,13.55
2023-04-21T15:23:18.576Z,13.52
2023-04-21T15:28:21.621Z,13.45
2023-04-21T15:33:24.708Z,13.33
2023-04-21T15:38:28.131Z,13.20
2023-04-21T15:43:31.349Z,13.07
2023-04-21T15:48:34.439Z,12.92
2023-04-21T15:53:38.190Z,12.74
2023-04-21T15:58:41.351Z,12.62
2023-04-21T16:03:44.669Z,12.44
2023-04-21T16:08:47.761Z,12.24
2023-04-21T16:13:52.194Z,12.09
2023-04-21T16:18:55.142Z,11.87
2023-04-21T16:23:58.681Z,11.78
2023-04-21T16:29:01.787Z,11.65
2023-04-21T16:34:04.867Z,11.66
2023-04-21T16:39:08.723Z,11.66
2023-04-21T16:44:11.703Z,11.66
2023-04-21T16:49:14.731Z,11.47
2023-04-21T16:54:17.842Z,11.44
2023-04-21T16:59:21.650Z,11.37
2023-04-21T17:04:24.945Z,11.42
2023-04-21T17:09:27.899Z,11.34
2023-04-21T17:14:31.365Z,11.10
2023-04-21T17:19:34.667Z,11.17
2023-04-21T17:24:51.795Z,10.98
2023-04-21T17:29:55.924Z,11.01
2023-04-21T17:34:58.729Z,10.96
2023-04-21T17:40:03.298Z,10.78
2023-04-21T17:45:09.704Z,10.86
2023-04-21T17:50:13.299Z,10.70
2023-04-21T17:55:17.478Z,10.73
2023-04-21T18:00:20.908Z,10.63
2023-04-21T18:05:23.965Z,10.71
2023-04-21T18:10:29.082Z,10.58
2023-04-21T18:15:33.146Z,10.66
2023-04-21T18:20:36.870Z,10.65
2023-04-21T18:25:43.014Z,10.62
2023-04-21T18:30:47.285Z,10.55
2023-04-21T18:35:50.446Z,10.41
2023-04-21T18:41:11.969Z,10.50
2023-04-21T18:46:15.099Z,10.46
2023-04-21T18:51:36.693Z,10.35
2023-04-21T18:56:39.798Z,10.33
2023-04-21T19:01:43.073Z,10.25
2023-04-21T19:06:46.246Z,10.20
2023-04-21T19:11:49.511Z,10.16
2023-04-21T19:16:53.304Z,10.17
2023-04-21T19:21:56.464Z,10.04
2023-04-21T19:26:59.661Z,10.01
2023-04-21T19:32:03.422Z,10.05
2023-04-21T19:37:44.017Z,10.07
2023-04-21T19:42:47.051Z,9.93
2023-04-21T19:48:08.945Z,9.97
2023-04-21T19:53:15.058Z,9.86
2023-04-21T19:58:28.710Z,9.65
2023-04-21T20:03:41.505Z,9.47
2023-04-21T20:08:44.717Z,9.52
2023-04-21T20:13:47.994Z,9.45
2023-04-21T20:18:51.321Z,9.30
2023-04-21T20:23:54.239Z,9.34
2023-04-21T20:28:57.233Z,9.38
2023-04-21T20:34:00.228Z,9.24
2023-04-21T20:39:06.837Z,9.24
2023-04-21T20:44:10.065Z,9.35
2023-04-21T20:49:13.310Z,9.36
2023-04-21T20:54:16.460Z,9.25
2023-04-21T20:59:19.448Z,9.22
2023-04-21T21:04:22.988Z,9.12
2023-04-21T21:09:26.173Z,9.18
2023-04-21T21:14:29.120Z,9.09
2023-04-21T21:19:32.135Z,9.09
2023-04-21T21:24:35.132Z,8.98
2023-04-21T21:29:38.715Z,8.99
2023-04-21T21:34:41.868Z,8.90
2023-04-21T21:39:44.836Z,8.82
2023-04-21T21:44:47.784Z,8.87
2023-04-21T21:49:55.172Z,8.82
2023-04-21T21:54:58.746Z,8.82
2023-04-21T22:00:02.400Z,8.77
2023-04-21T22:05:10.341Z,8.77
2023-04-21T22:10:13.445Z,8.65
2023-04-21T22:15:17.062Z,8.59
2023-04-21T22:20:22.056Z,8.65
2023-04-21T22:25:27.365Z,8.58
2023-04-21T22:30:30.464Z,8.68
2023-04-21T22:35:33.537Z,8.53
2023-04-21T22:40:36.887Z,8.66
2023-04-21T22:45:39.912Z,8.77
2023-04-21T22:50:45.110Z,8.66
2023-04-21T22:55:48.416Z,8.52
2023-04-21T23:00:51.430Z,8.59
2023-04-21T23:05:54.343Z,8.56
2023-04-21T23:10:57.681Z,8.54
2023-04-21T23:16:00.764Z,8.65
2023-04-21T23:21:03.813Z,8.71
2023-04-21T23:26:06.761Z,8.87
2023-04-21T23:31:09.802Z,8.88
2023-04-21T23:36:12.753Z,9.19
2023-04-21T23:41:15.927Z,9.40
2023-04-21T23:46:18.909Z,9.55
2023-04-21T23:51:21.989Z,9.65
2023-04-21T23:56:25.093Z,9.75
